Main page
Satellite images 10-day forecastsClimateMarine weather Cyclones Lightning AirportsFAQ Newsletter About
Weather : Europe Africa North America South America Asia Australia-Oceania Others
Languages Contact

London-Southend, England

London Southend Airport

latitude: 51-34N, longitude: 000-42E, elevation: 15 m


METAR: EGMC 300550Z 30007KT CAVOK 12/08 Q1016
TAF: EGMC 300457Z 3006/3015 30009KT 9999 FEW040 PROB30 TEMPO 3012/3015 7000 SHRA

Time: 07:05 (06:05 UTC)

Current weather observation

The report was made 15 minutes ago, at 05:50 UTC
Wind 7 kt from the West/Northwest
Temperature 12°C
Humidity 76%
Pressure 1016 hPa
Visibility 10 km or more
no clouds below 1500 m and no cumulonimbus

Change units

Forecast

The report was made 1 hour and 8 minutes ago, at 04:57 UTC
Forecast valid from 30 at 06 UTC to 30 at 15 UTC
Wind 9 kt from the West/Northwest
Visibility 10 km or more
Few clouds at a height of 4000 ft
Probability 30% :
Temporary
from 30 at 12 UTC to 30 at 15 UTC
Visibility: 7000 m
rain showers
The information on this site is subject to a disclaimer
Weather : Europe Africa North America South America Asia Australia-Oceania Others
Satellite images 10-day forecastsClimateMarine weather Cyclones Lightning AirportsFAQ Languages Contact Newsletter About